createdAt,value
2018-02-01T00:00:29.500Z,992.97
2018-02-01T00:02:22.280Z,992.98
2018-02-01T00:03:22.193Z,992.96
2018-02-01T00:05:14.969Z,992.99
2018-02-01T00:06:14.873Z,992.92
2018-02-01T00:08:07.658Z,992.96
2018-02-01T00:09:07.564Z,992.97
2018-02-01T00:11:00.369Z,992.94
2018-02-01T00:12:00.280Z,992.97
2018-02-01T00:13:53.033Z,992.94
2018-02-01T00:14:52.967Z,992.97
2018-02-01T00:16:45.757Z,992.99
2018-02-01T00:17:45.676Z,992.99
2018-02-01T00:19:38.440Z,992.95
2018-02-01T00:20:38.371Z,992.90
2018-02-01T00:22:31.154Z,992.92
2018-02-01T00:23:31.075Z,992.91
2018-02-01T00:25:23.840Z,992.96
2018-02-01T00:26:23.769Z,992.96
2018-02-01T00:28:16.581Z,992.84
2018-02-01T00:29:16.508Z,992.96
2018-02-01T00:31:09.260Z,992.95
2018-02-01T00:32:09.201Z,992.87
2018-02-01T00:34:01.977Z,992.88
2018-02-01T00:35:01.900Z,992.92
2018-02-01T00:36:54.710Z,992.93
2018-02-01T00:37:54.603Z,992.91
2018-02-01T00:39:47.369Z,992.98
2018-02-01T00:40:47.302Z,992.95
2018-02-01T00:42:40.156Z,993.00
2018-02-01T00:43:40.026Z,992.99
2018-02-01T00:45:32.782Z,993.00
2018-02-01T00:46:32.714Z,992.98
2018-02-01T00:48:25.497Z,993.00
2018-02-01T00:49:25.415Z,992.99
2018-02-01T00:51:18.160Z,993.04
2018-02-01T00:52:18.093Z,993.06
2018-02-01T00:54:10.867Z,993.04
2018-02-01T00:55:10.783Z,993.06
2018-02-01T00:57:03.563Z,993.06
2018-02-01T00:58:03.495Z,993.08
2018-02-01T00:59:56.288Z,993.07
2018-02-01T01:00:56.187Z,993.10
2018-02-01T01:02:48.973Z,993.02
2018-02-01T01:03:48.900Z,993.02
2018-02-01T01:05:41.698Z,993.06
2018-02-01T01:06:41.626Z,993.05
2018-02-01T01:08:34.387Z,993.06
2018-02-01T01:09:34.309Z,992.99
2018-02-01T01:11:27.057Z,992.97
2018-02-01T01:12:26.986Z,993.03
2018-02-01T01:14:19.765Z,993.11
2018-02-01T01:15:19.689Z,993.12
2018-02-01T01:17:12.433Z,993.14
2018-02-01T01:18:12.372Z,993.14
2018-02-01T01:20:05.162Z,993.09
2018-02-01T01:21:05.084Z,993.17
2018-02-01T01:22:57.854Z,993.16
2018-02-01T01:23:57.777Z,993.21
2018-02-01T01:25:50.565Z,993.19
2018-02-01T01:26:50.482Z,993.20
2018-02-01T01:28:43.266Z,993.19
2018-02-01T01:29:43.181Z,993.21
2018-02-01T01:31:35.934Z,993.19
2018-02-01T01:32:35.873Z,993.20
2018-02-01T01:34:28.635Z,993.24
2018-02-01T01:35:28.551Z,993.28
2018-02-01T01:37:21.317Z,993.28
2018-02-01T01:38:21.248Z,993.30
2018-02-01T01:40:14.125Z,993.25
2018-02-01T01:41:13.945Z,993.31
2018-02-01T01:43:06.707Z,993.30
2018-02-01T01:44:06.637Z,993.27
2018-02-01T01:45:59.450Z,993.26
2018-02-01T01:46:59.353Z,993.21
2018-02-01T01:48:52.114Z,993.25
2018-02-01T01:49:52.043Z,993.21
2018-02-01T01:51:44.808Z,993.18
2018-02-01T01:52:44.753Z,993.12
2018-02-01T01:54:37.499Z,993.11
2018-02-01T01:55:37.404Z,993.13
2018-02-01T01:57:30.388Z,993.18
2018-02-01T01:58:30.319Z,993.15
2018-02-01T02:00:23.090Z,993.20
2018-02-01T02:01:23.008Z,993.16
2018-02-01T02:03:15.778Z,993.19
2018-02-01T02:04:15.706Z,993.20
2018-02-01T02:06:08.481Z,993.22
2018-02-01T02:07:08.402Z,993.15
2018-02-01T02:09:01.166Z,993.14
2018-02-01T02:10:01.099Z,993.11
2018-02-01T02:11:53.909Z,993.09
2018-02-01T02:12:53.859Z,993.15
2018-02-01T02:14:46.578Z,993.11
2018-02-01T02:15:46.513Z,993.12
2018-02-01T02:17:39.366Z,993.11
2018-02-01T02:18:39.300Z,993.13
2018-02-01T02:20:31.964Z,993.12
2018-02-01T02:21:31.896Z,993.12
2018-02-01T02:23:24.670Z,993.09
2018-02-01T02:24:24.582Z,993.16
2018-02-01T02:26:17.362Z,993.17
2018-02-01T02:27:17.282Z,993.16
2018-02-01T02:29:10.041Z,993.15
2018-02-01T02:30:09.976Z,993.13
2018-02-01T02:32:02.732Z,993.11
2018-02-01T02:33:02.663Z,993.07
2018-02-01T02:34:55.408Z,993.08
2018-02-01T02:35:55.353Z,993.09
2018-02-01T02:37:48.113Z,993.17
2018-02-01T02:38:48.032Z,993.12
2018-02-01T02:40:41.627Z,993.12
2018-02-01T02:41:41.560Z,993.12
2018-02-01T02:43:34.344Z,993.12
2018-02-01T02:44:34.258Z,993.20
2018-02-01T02:46:27.004Z,993.20
2018-02-01T02:47:26.935Z,993.22
2018-02-01T02:49:19.708Z,993.12
2018-02-01T02:50:19.627Z,993.16
2018-02-01T02:52:12.410Z,993.14
2018-02-01T02:53:12.334Z,993.17
2018-02-01T02:55:05.107Z,993.14
2018-02-01T02:56:05.038Z,993.14
2018-02-01T02:57:57.796Z,993.12
2018-02-01T02:58:57.713Z,993.15
2018-02-01T03:00:50.475Z,993.15
2018-02-01T03:01:50.408Z,993.12
2018-02-01T03:03:43.185Z,993.12
2018-02-01T03:04:43.107Z,993.07
2018-02-01T03:06:35.867Z,993.04
2018-02-01T03:07:35.798Z,993.03
2018-02-01T03:09:28.585Z,993.12
2018-02-01T03:10:28.556Z,993.12
2018-02-01T03:12:21.288Z,993.14
2018-02-01T03:13:21.216Z,993.13
2018-02-01T03:15:13.993Z,993.08
2018-02-01T03:16:13.915Z,993.09
2018-02-01T03:18:06.785Z,993.06
2018-02-01T03:19:06.612Z,993.08
2018-02-01T03:20:59.385Z,993.06
2018-02-01T03:21:59.319Z,993.04
2018-02-01T03:23:52.100Z,993.05
2018-02-01T03:24:52.025Z,993.04
2018-02-01T03:26:44.772Z,993.01
2018-02-01T03:27:44.719Z,993.05
2018-02-01T03:29:37.475Z,993.04
2018-02-01T03:30:37.395Z,992.99
2018-02-01T03:32:30.177Z,993.01
2018-02-01T03:33:30.104Z,993.03
2018-02-01T03:35:22.880Z,992.94
2018-02-01T03:36:22.794Z,992.89
2018-02-01T03:38:15.570Z,992.92
2018-02-01T03:39:15.511Z,992.88
2018-02-01T03:41:08.287Z,992.91
2018-02-01T03:42:08.211Z,992.86
2018-02-01T03:44:00.963Z,992.89
2018-02-01T03:45:00.895Z,992.91
2018-02-01T03:46:53.674Z,992.99
2018-02-01T03:47:53.583Z,993.01
2018-02-01T03:49:46.377Z,993.10
2018-02-01T03:50:46.301Z,993.11
2018-02-01T03:52:39.050Z,993.18
2018-02-01T03:53:38.985Z,993.17
2018-02-01T03:55:31.766Z,993.18
2018-02-01T03:56:31.691Z,993.17
2018-02-01T03:58:24.441Z,993.17
2018-02-01T03:59:24.374Z,993.19
2018-02-01T04:01:17.178Z,993.18
2018-02-01T04:02:17.045Z,993.17
2018-02-01T04:04:09.807Z,993.25
2018-02-01T04:05:09.737Z,993.27
2018-02-01T04:07:02.517Z,993.30
2018-02-01T04:08:02.428Z,993.32
2018-02-01T04:09:55.186Z,993.31
2018-02-01T04:10:55.105Z,993.30
2018-02-01T04:12:48.059Z,993.34
2018-02-01T04:13:47.852Z,993.37
2018-02-01T04:15:40.629Z,993.35
2018-02-01T04:16:40.553Z,993.43
2018-02-01T04:18:33.319Z,993.39
2018-02-01T04:19:33.305Z,993.45
2018-02-01T04:21:25.998Z,993.41
2018-02-01T04:22:25.924Z,993.44
2018-02-01T04:24:18.692Z,993.44
2018-02-01T04:25:18.597Z,993.42
2018-02-01T04:27:11.638Z,993.43
2018-02-01T04:28:11.311Z,993.45
2018-02-01T04:30:04.682Z,993.39
2018-02-01T04:31:03.995Z,993.37
2018-02-01T04:32:56.755Z,993.44
2018-02-01T04:33:56.676Z,993.43
2018-02-01T04:35:49.433Z,993.41
2018-02-01T04:36:49.366Z,993.40
2018-02-01T04:38:42.139Z,993.42
2018-02-01T04:39:42.049Z,993.46
2018-02-01T04:41:34.794Z,993.44
2018-02-01T04:42:34.735Z,993.49
2018-02-01T04:44:27.531Z,993.48
2018-02-01T04:45:27.474Z,993.42
2018-02-01T04:47:20.192Z,993.50
2018-02-01T04:48:20.138Z,993.50
2018-02-01T04:50:12.980Z,993.55
2018-02-01T04:51:12.873Z,993.55
2018-02-01T04:53:05.831Z,993.58
2018-02-01T04:54:05.651Z,993.61
2018-02-01T04:55:58.362Z,993.61
2018-02-01T04:56:58.357Z,993.60
2018-02-01T04:58:51.065Z,993.61
2018-02-01T04:59:50.983Z,993.61
2018-02-01T05:01:43.731Z,993.64
2018-02-01T05:02:43.669Z,993.61
2018-02-01T05:04:36.441Z,993.64
2018-02-01T05:05:36.365Z,993.69
2018-02-01T05:07:29.133Z,993.66
2018-02-01T05:08:29.065Z,993.62
2018-02-01T05:10:21.840Z,993.66
2018-02-01T05:11:21.751Z,993.68
2018-02-01T05:13:14.506Z,993.69
2018-02-01T05:14:14.440Z,993.68
2018-02-01T05:16:07.210Z,993.67
2018-02-01T05:17:07.127Z,993.74
2018-02-01T05:18:59.882Z,993.75
2018-02-01T05:19:59.817Z,993.79
2018-02-01T05:21:52.609Z,993.77
2018-02-01T05:22:52.595Z,993.79
2018-02-01T05:24:45.279Z,993.73
2018-02-01T05:25:45.206Z,993.72
2018-02-01T05:27:37.988Z,993.68
2018-02-01T05:28:37.901Z,993.73
2018-02-01T05:30:30.664Z,993.76
2018-02-01T05:31:30.587Z,993.74
2018-02-01T05:33:23.350Z,993.81
2018-02-01T05:34:23.329Z,993.83
2018-02-01T05:36:16.069Z,993.88
2018-02-01T05:37:15.972Z,993.86
2018-02-01T05:39:08.747Z,993.86
2018-02-01T05:40:08.669Z,993.85
2018-02-01T05:42:01.448Z,993.83
2018-02-01T05:43:01.360Z,993.85
2018-02-01T05:44:54.120Z,993.85
2018-02-01T05:45:54.047Z,993.87
2018-02-01T05:47:46.832Z,993.84
2018-02-01T05:48:46.764Z,993.84
2018-02-01T05:50:39.615Z,993.88
2018-02-01T05:51:39.555Z,993.88
2018-02-01T05:53:32.266Z,993.94
2018-02-01T05:54:32.189Z,993.93
2018-02-01T05:56:24.955Z,993.90
2018-02-01T05:57:24.882Z,993.88
2018-02-01T05:59:17.660Z,993.88
2018-02-01T06:00:17.590Z,993.94
2018-02-01T06:02:10.358Z,993.95
2018-02-01T06:03:10.275Z,993.97
2018-02-01T06:05:03.032Z,993.88
2018-02-01T06:06:02.963Z,993.91
2018-02-01T06:07:55.729Z,993.92
2018-02-01T06:08:55.654Z,993.91
2018-02-01T06:10:48.416Z,993.91
2018-02-01T06:11:48.342Z,993.90
2018-02-01T06:13:41.112Z,993.87
2018-02-01T06:14:41.032Z,993.90
2018-02-01T06:16:33.810Z,993.97
2018-02-01T06:17:33.731Z,994.03
2018-02-01T06:19:26.504Z,994.10
2018-02-01T06:20:26.421Z,994.12
2018-02-01T06:22:19.211Z,994.15
2018-02-01T06:23:19.119Z,994.16
2018-02-01T06:25:11.877Z,994.21
2018-02-01T06:26:11.803Z,994.23
2018-02-01T06:28:04.743Z,994.30
2018-02-01T06:29:04.549Z,994.31
2018-02-01T06:30:57.318Z,994.28
2018-02-01T06:31:57.251Z,994.30
2018-02-01T06:33:50.051Z,994.36
2018-02-01T06:34:49.967Z,994.37
2018-02-01T06:36:42.720Z,994.35
2018-02-01T06:37:42.652Z,994.34
2018-02-01T06:39:35.487Z,994.20
2018-02-01T06:40:35.396Z,994.22
2018-02-01T06:42:28.143Z,994.26
2018-02-01T06:43:28.083Z,994.37
2018-02-01T06:45:20.853Z,994.39
2018-02-01T06:46:20.765Z,994.39
2018-02-01T06:48:13.570Z,994.40
2018-02-01T06:49:13.471Z,994.40
2018-02-01T06:51:06.246Z,994.41
2018-02-01T06:52:06.161Z,994.40
2018-02-01T06:53:58.934Z,994.49
2018-02-01T06:54:58.864Z,994.51
2018-02-01T06:56:51.644Z,994.54
2018-02-01T06:57:51.559Z,994.57
2018-02-01T06:59:44.344Z,994.58
2018-02-01T07:00:44.277Z,994.52
2018-02-01T07:02:37.028Z,994.46
2018-02-01T07:03:36.960Z,994.50
2018-02-01T07:05:29.723Z,994.54
2018-02-01T07:06:29.636Z,994.57
2018-02-01T07:08:22.391Z,994.60
2018-02-01T07:09:22.326Z,994.58
2018-02-01T07:11:15.215Z,994.64
2018-02-01T07:12:15.020Z,994.69
2018-02-01T07:14:07.770Z,994.78
2018-02-01T07:15:07.704Z,994.75
2018-02-01T07:17:00.469Z,994.72
2018-02-01T07:18:00.385Z,994.78
2018-02-01T07:19:53.159Z,994.77
2018-02-01T07:20:53.086Z,994.74
2018-02-01T07:22:45.874Z,994.72
2018-02-01T07:23:45.801Z,994.74
2018-02-01T07:25:38.558Z,994.67
2018-02-01T07:26:38.476Z,994.67
2018-02-01T07:28:31.259Z,994.70
2018-02-01T07:29:31.164Z,994.66
2018-02-01T07:31:23.918Z,994.66
2018-02-01T07:32:23.833Z,994.73
2018-02-01T07:34:16.598Z,994.77
2018-02-01T07:35:16.517Z,994.78
2018-02-01T07:37:09.300Z,994.79
2018-02-01T07:38:09.221Z,994.87
2018-02-01T07:40:01.985Z,994.92
2018-02-01T07:41:01.940Z,994.94
2018-02-01T07:42:54.690Z,994.87
2018-02-01T07:43:54.613Z,994.87
2018-02-01T07:45:47.364Z,994.81
2018-02-01T07:46:47.306Z,994.86
2018-02-01T07:48:40.070Z,994.85
2018-02-01T07:49:39.991Z,994.89
2018-02-01T07:51:32.744Z,994.85
2018-02-01T07:52:32.670Z,994.81
2018-02-01T07:54:25.461Z,994.87
2018-02-01T07:55:25.356Z,994.86
2018-02-01T07:57:18.142Z,994.91
2018-02-01T07:58:18.041Z,994.95
2018-02-01T08:00:10.807Z,994.97
2018-02-01T08:01:10.745Z,994.96
2018-02-01T08:03:03.638Z,994.85
2018-02-01T08:04:03.450Z,994.96
2018-02-01T08:05:56.242Z,995.01
2018-02-01T08:06:56.129Z,995.00
2018-02-01T08:08:48.914Z,994.96
2018-02-01T08:09:48.818Z,994.94
2018-02-01T08:11:41.577Z,995.05
2018-02-01T08:12:41.508Z,995.03
2018-02-01T08:14:34.309Z,995.10
2018-02-01T08:15:34.200Z,995.12
2018-02-01T08:17:26.963Z,995.10
2018-02-01T08:18:26.887Z,995.13
2018-02-01T08:20:19.677Z,995.20
2018-02-01T08:21:19.588Z,995.22
2018-02-01T08:23:12.345Z,995.41
2018-02-01T08:24:12.277Z,995.37
2018-02-01T08:26:05.053Z,995.37
2018-02-01T08:27:04.975Z,995.46
2018-02-01T08:28:57.752Z,995.46
2018-02-01T08:29:57.667Z,995.43
2018-02-01T08:31:50.426Z,995.58
2018-02-01T08:32:50.365Z,995.60
2018-02-01T08:34:43.150Z,995.66
2018-02-01T08:35:43.117Z,995.69
2018-02-01T08:37:35.856Z,995.60
2018-02-01T08:38:35.783Z,995.62
2018-02-01T08:40:28.720Z,995.56
2018-02-01T08:41:28.524Z,995.53
2018-02-01T08:43:21.284Z,995.53
2018-02-01T08:44:21.208Z,995.49
2018-02-01T08:46:13.990Z,995.47
2018-02-01T08:47:13.907Z,995.59
2018-02-01T08:49:06.733Z,995.57
2018-02-01T08:50:06.623Z,995.53
2018-02-01T08:51:59.407Z,995.68
2018-02-01T08:52:59.332Z,995.70
2018-02-01T08:54:52.095Z,995.70
2018-02-01T08:55:52.042Z,995.71
2018-02-01T08:57:44.825Z,995.70
2018-02-01T08:58:44.747Z,995.65
2018-02-01T09:00:37.600Z,995.61
2018-02-01T09:01:37.459Z,995.72
2018-02-01T09:03:30.236Z,995.73
2018-02-01T09:04:30.216Z,995.61
2018-02-01T09:06:22.974Z,995.76
2018-02-01T09:07:22.901Z,995.79
2018-02-01T09:09:15.665Z,995.84
2018-02-01T09:10:15.605Z,995.78
2018-02-01T09:12:08.384Z,995.62
2018-02-01T09:13:08.299Z,995.71
2018-02-01T09:15:01.065Z,995.89
2018-02-01T09:16:01.001Z,995.99
2018-02-01T09:17:53.853Z,996.10
2018-02-01T09:18:53.769Z,996.04
2018-02-01T09:20:46.588Z,995.99
2018-02-01T09:21:46.503Z,995.98
2018-02-01T09:23:39.273Z,995.98
2018-02-01T09:24:39.229Z,995.90
2018-02-01T09:26:32.003Z,995.87
2018-02-01T09:27:31.932Z,995.94
2018-02-01T09:29:24.718Z,995.87
2018-02-01T09:30:24.635Z,995.91
2018-02-01T09:32:17.465Z,995.98
2018-02-01T09:33:17.360Z,995.96
2018-02-01T09:35:10.163Z,995.92
2018-02-01T09:36:10.095Z,995.84
2018-02-01T09:38:02.906Z,995.85
2018-02-01T09:39:02.825Z,995.86
2018-02-01T09:40:55.622Z,995.91
2018-02-01T09:41:55.559Z,995.90
2018-02-01T09:43:48.444Z,995.93
2018-02-01T09:44:48.297Z,995.90
2018-02-01T09:46:41.111Z,995.84
2018-02-01T09:47:41.033Z,995.81
2018-02-01T09:49:33.916Z,995.75
2018-02-01T09:50:33.860Z,995.81
2018-02-01T09:52:26.712Z,995.87
2018-02-01T09:53:26.643Z,995.84
2018-02-01T09:55:19.454Z,995.80
2018-02-01T09:56:19.406Z,995.81
2018-02-01T09:58:12.269Z,995.76
2018-02-01T09:59:12.257Z,995.77
2018-02-01T10:01:05.461Z,995.72
2018-02-01T10:02:05.379Z,995.67
2018-02-01T10:03:58.272Z,995.68
2018-02-01T10:04:58.233Z,995.74
2018-02-01T10:06:51.030Z,995.73
2018-02-01T10:07:50.974Z,995.75
2018-02-01T10:09:43.799Z,995.90
2018-02-01T10:10:43.714Z,995.83
2018-02-01T10:12:36.661Z,995.74
2018-02-01T10:13:36.491Z,995.79
2018-02-01T10:15:29.333Z,995.81
2018-02-01T10:16:29.246Z,995.84
2018-02-01T10:18:22.079Z,995.84
2018-02-01T10:19:21.984Z,995.82
2018-02-01T10:21:14.789Z,995.81
2018-02-01T10:22:14.732Z,995.74
2018-02-01T10:24:07.546Z,995.71
2018-02-01T10:25:07.464Z,995.70
2018-02-01T10:27:00.302Z,995.77
2018-02-01T10:28:00.297Z,995.70
2018-02-01T10:29:52.988Z,995.63
2018-02-01T10:30:52.903Z,995.59
2018-02-01T10:32:45.761Z,995.62
2018-02-01T10:33:45.690Z,995.63
2018-02-01T10:35:38.555Z,995.78
2018-02-01T10:36:38.419Z,995.74
2018-02-01T10:38:31.232Z,995.76
2018-02-01T10:39:31.157Z,995.77
2018-02-01T10:41:23.994Z,995.71
2018-02-01T10:42:23.883Z,995.78
2018-02-01T10:44:16.687Z,995.73
2018-02-01T10:45:16.596Z,995.60
2018-02-01T10:47:09.397Z,995.61
2018-02-01T10:48:09.342Z,995.66
2018-02-01T10:50:02.157Z,995.58
2018-02-01T10:51:02.100Z,995.59
2018-02-01T10:52:54.839Z,995.64
2018-02-01T10:53:54.852Z,995.62
2018-02-01T10:55:47.569Z,995.61
2018-02-01T10:56:47.509Z,995.61
2018-02-01T10:58:40.418Z,995.66
2018-02-01T10:59:40.332Z,995.74
2018-02-01T11:01:33.138Z,995.73
2018-02-01T11:02:33.053Z,995.68
2018-02-01T11:04:25.906Z,995.61
2018-02-01T11:05:25.770Z,995.61
2018-02-01T11:07:18.706Z,995.56
2018-02-01T11:08:18.629Z,995.50
2018-02-01T11:10:11.361Z,995.50
2018-02-01T11:11:11.340Z,995.54
2018-02-01T11:13:04.122Z,995.56
2018-02-01T11:14:04.122Z,995.61
2018-02-01T11:15:56.903Z,995.63
2018-02-01T11:16:56.812Z,995.63
2018-02-01T11:18:49.695Z,995.62
2018-02-01T11:19:49.539Z,995.64
2018-02-01T11:21:42.328Z,995.66
2018-02-01T11:22:42.287Z,995.67
2018-02-01T11:24:35.056Z,995.60
2018-02-01T11:25:34.974Z,995.63
2018-02-01T11:27:27.828Z,995.66
2018-02-01T11:28:27.778Z,995.66
2018-02-01T11:30:20.608Z,995.64
2018-02-01T11:31:20.570Z,995.67
2018-02-01T11:33:13.485Z,995.58
2018-02-01T11:34:13.313Z,995.54
2018-02-01T11:36:06.115Z,995.54
2018-02-01T11:37:06.068Z,995.63
2018-02-01T11:38:58.907Z,995.64
2018-02-01T11:39:58.805Z,995.60
2018-02-01T11:41:51.761Z,995.52
2018-02-01T11:42:51.566Z,995.59
2018-02-01T11:44:44.337Z,995.67
2018-02-01T11:45:44.259Z,995.58
2018-02-01T11:47:37.056Z,995.54
2018-02-01T11:48:37.021Z,995.56
2018-02-01T11:50:29.769Z,995.56
2018-02-01T11:51:29.662Z,995.49
2018-02-01T11:53:22.659Z,995.49
2018-02-01T11:54:22.585Z,995.44
2018-02-01T11:56:15.461Z,995.49
2018-02-01T11:57:15.344Z,995.40
2018-02-01T11:59:08.286Z,995.39
2018-02-01T12:00:08.192Z,995.49
2018-02-01T12:02:01.012Z,995.48
2018-02-01T12:03:00.971Z,995.51
2018-02-01T12:04:54.013Z,995.50
2018-02-01T12:05:54.311Z,995.50
2018-02-01T12:07:46.713Z,995.54
2018-02-01T12:08:46.667Z,995.53
2018-02-01T12:10:39.407Z,995.56
2018-02-01T12:11:39.384Z,995.53
2018-02-01T12:13:32.118Z,995.59
2018-02-01T12:14:32.017Z,995.60
2018-02-01T12:16:24.832Z,995.57
2018-02-01T12:17:24.722Z,995.52
2018-02-01T12:19:17.577Z,995.49
2018-02-01T12:20:17.454Z,995.54
2018-02-01T12:22:10.268Z,995.52
2018-02-01T12:23:10.199Z,995.57
2018-02-01T12:25:02.972Z,995.57
2018-02-01T12:26:02.950Z,995.60
2018-02-01T12:27:55.795Z,995.63
2018-02-01T12:28:55.719Z,995.56
2018-02-01T12:30:48.543Z,995.56
2018-02-01T12:31:48.404Z,995.54
2018-02-01T12:33:41.317Z,995.58
2018-02-01T12:34:41.252Z,995.60
2018-02-01T12:36:34.042Z,995.54
2018-02-01T12:37:33.978Z,995.57
2018-02-01T12:39:26.714Z,995.60
2018-02-01T12:40:26.668Z,995.59
2018-02-01T12:42:19.577Z,995.60
2018-02-01T12:43:19.381Z,995.61
2018-02-01T12:45:12.133Z,995.59
2018-02-01T12:46:12.050Z,995.49
2018-02-01T12:48:04.854Z,995.53
2018-02-01T12:49:04.755Z,995.56
2018-02-01T12:50:57.727Z,995.58
2018-02-01T12:51:57.804Z,995.54
2018-02-01T12:53:50.622Z,995.51
2018-02-01T12:54:50.515Z,995.55
2018-02-01T12:56:43.370Z,995.45
2018-02-01T12:57:43.254Z,995.48
2018-02-01T12:59:36.153Z,995.43
2018-02-01T13:00:36.013Z,995.42
2018-02-01T13:02:28.794Z,995.38
2018-02-01T13:03:28.709Z,995.33
2018-02-01T13:05:21.493Z,995.31
2018-02-01T13:06:21.467Z,995.31
2018-02-01T13:08:14.271Z,995.39
2018-02-01T13:09:14.176Z,995.33
2018-02-01T13:11:07.223Z,995.31
2018-02-01T13:12:06.957Z,995.32
2018-02-01T13:13:59.804Z,995.31
2018-02-01T13:14:59.700Z,995.39
2018-02-01T13:16:52.518Z,995.35
2018-02-01T13:17:52.472Z,995.31
2018-02-01T13:19:45.264Z,995.35
2018-02-01T13:20:45.162Z,995.40
2018-02-01T13:22:37.951Z,995.43
2018-02-01T13:23:37.856Z,995.37
2018-02-01T13:25:30.624Z,995.45
2018-02-01T13:26:30.588Z,995.46
2018-02-01T13:28:23.439Z,995.41
2018-02-01T13:29:23.379Z,995.49
2018-02-01T13:31:16.289Z,995.47
2018-02-01T13:32:16.044Z,995.46
2018-02-01T13:34:08.947Z,995.46
2018-02-01T13:35:08.850Z,995.46
2018-02-01T13:37:01.951Z,995.46
2018-02-01T13:38:01.551Z,995.57
2018-02-01T13:39:54.508Z,995.49
2018-02-01T13:40:54.328Z,995.48
2018-02-01T13:42:47.246Z,995.55
2018-02-01T13:43:47.124Z,995.50
2018-02-01T13:45:39.887Z,995.41
2018-02-01T13:46:39.840Z,995.47
2018-02-01T13:48:32.656Z,995.39
2018-02-01T13:49:32.529Z,995.34
2018-02-01T13:51:25.370Z,995.39
2018-02-01T13:52:25.277Z,995.27
2018-02-01T13:54:18.098Z,995.36
2018-02-01T13:55:17.973Z,995.41
2018-02-01T13:57:10.826Z,995.45
2018-02-01T13:58:10.691Z,995.40
2018-02-01T14:00:03.511Z,995.45
2018-02-01T14:01:03.423Z,995.47
2018-02-01T14:02:56.258Z,995.48
2018-02-01T14:03:56.183Z,995.52
2018-02-01T14:05:49.016Z,995.54
2018-02-01T14:06:48.890Z,995.51
2018-02-01T14:08:41.766Z,995.50
2018-02-01T14:09:41.627Z,995.47
2018-02-01T14:11:34.388Z,995.49
2018-02-01T14:12:34.311Z,995.48
2018-02-01T14:14:27.378Z,995.45
2018-02-01T14:15:27.281Z,995.40
2018-02-01T14:17:20.023Z,995.36
2018-02-01T14:18:20.065Z,995.34
2018-02-01T14:20:12.803Z,995.33
2018-02-01T14:21:12.667Z,995.36
2018-02-01T14:23:05.512Z,995.33
2018-02-01T14:24:05.353Z,995.28
2018-02-01T14:25:58.133Z,995.36
2018-02-01T14:26:58.072Z,995.31
2018-02-01T14:28:50.924Z,995.30
2018-02-01T14:29:50.810Z,995.35
2018-02-01T14:31:43.570Z,995.34
2018-02-01T14:32:43.496Z,995.35
2018-02-01T14:34:36.298Z,995.37
2018-02-01T14:35:36.217Z,995.45
2018-02-01T14:37:29.045Z,995.44
2018-02-01T14:38:28.925Z,995.44
2018-02-01T14:40:21.909Z,995.41
2018-02-01T14:41:21.865Z,995.37
2018-02-01T14:43:14.653Z,995.42
2018-02-01T14:44:14.609Z,995.39
2018-02-01T14:46:07.517Z,995.41
2018-02-01T14:47:07.366Z,995.44
2018-02-01T14:49:00.198Z,995.45
2018-02-01T14:50:00.114Z,995.45
2018-02-01T14:51:52.908Z,995.44
2018-02-01T14:52:52.796Z,995.42
2018-02-01T14:54:45.604Z,995.41
2018-02-01T14:55:45.529Z,995.41
2018-02-01T14:57:38.337Z,995.41
2018-02-01T14:58:38.229Z,995.42
2018-02-01T15:00:31.048Z,995.48
2018-02-01T15:01:31.014Z,995.42
2018-02-01T15:03:23.714Z,995.45
2018-02-01T15:04:23.654Z,995.46
2018-02-01T15:06:16.490Z,995.51
2018-02-01T15:07:16.400Z,995.49
2018-02-01T15:09:09.206Z,995.48
2018-02-01T15:10:09.096Z,995.54
2018-02-01T15:12:01.938Z,995.63
2018-02-01T15:13:01.922Z,995.62
2018-02-01T15:14:54.675Z,995.70
2018-02-01T15:15:54.602Z,995.71
2018-02-01T15:17:47.497Z,995.72
2018-02-01T15:18:47.415Z,995.73
2018-02-01T15:20:40.194Z,995.75
2018-02-01T15:21:40.145Z,995.78
2018-02-01T15:23:32.957Z,995.76
2018-02-01T15:24:32.918Z,995.71
2018-02-01T15:26:25.659Z,995.78
2018-02-01T15:27:25.523Z,995.79
2018-02-01T15:29:18.337Z,995.75
2018-02-01T15:30:18.367Z,995.73
2018-02-01T15:32:11.001Z,995.73
2018-02-01T15:33:10.948Z,995.75
2018-02-01T15:35:03.708Z,995.77
2018-02-01T15:36:03.634Z,995.83
2018-02-01T15:37:56.458Z,995.86
2018-02-01T15:38:56.374Z,995.80
2018-02-01T15:40:49.204Z,995.82
2018-02-01T15:41:49.123Z,995.80
2018-02-01T15:43:41.955Z,995.78
2018-02-01T15:44:41.835Z,995.76
2018-02-01T15:46:35.104Z,995.71
2018-02-01T15:47:35.138Z,995.71
2018-02-01T15:49:27.866Z,995.74
2018-02-01T15:50:27.808Z,995.69
2018-02-01T15:52:20.751Z,995.74
2018-02-01T15:53:20.565Z,995.76
2018-02-01T15:55:13.335Z,995.81
2018-02-01T15:56:13.261Z,995.78
2018-02-01T15:58:06.111Z,995.85
2018-02-01T15:59:06.032Z,995.84
2018-02-01T16:00:58.817Z,995.88
2018-02-01T16:01:58.729Z,995.86
2018-02-01T16:03:51.499Z,995.87
2018-02-01T16:04:51.410Z,995.90
2018-02-01T16:06:44.253Z,995.94
2018-02-01T16:07:44.114Z,995.92
2018-02-01T16:09:36.875Z,995.97
2018-02-01T16:10:36.797Z,995.93
2018-02-01T16:12:29.610Z,995.97
2018-02-01T16:13:29.509Z,995.95
2018-02-01T16:15:22.264Z,995.97
2018-02-01T16:16:22.203Z,995.98
2018-02-01T16:18:14.984Z,996.03
2018-02-01T16:19:14.917Z,996.03
2018-02-01T16:21:07.663Z,996.05
2018-02-01T16:22:07.600Z,995.98
2018-02-01T16:24:00.415Z,996.04
2018-02-01T16:25:00.323Z,995.99
2018-02-01T16:26:53.101Z,995.98
2018-02-01T16:27:53.034Z,996.00
2018-02-01T16:29:45.817Z,995.98
2018-02-01T16:30:45.730Z,995.92
2018-02-01T16:32:38.590Z,995.96
2018-02-01T16:33:38.511Z,995.97
2018-02-01T16:35:31.343Z,995.97
2018-02-01T16:36:31.262Z,995.94
2018-02-01T16:38:24.115Z,995.99
2018-02-01T16:39:23.964Z,995.97
2018-02-01T16:41:16.733Z,996.04
2018-02-01T16:42:16.664Z,996.07
2018-02-01T16:44:09.454Z,996.03
2018-02-01T16:45:09.374Z,995.99
2018-02-01T16:47:02.129Z,996.00
2018-02-01T16:48:02.060Z,996.03
2018-02-01T16:49:54.850Z,996.03
2018-02-01T16:50:54.745Z,995.95
2018-02-01T16:52:47.506Z,995.98
2018-02-01T16:53:47.435Z,996.00
2018-02-01T16:55:40.220Z,996.01
2018-02-01T16:56:40.141Z,996.02
2018-02-01T16:58:32.908Z,996.04
2018-02-01T16:59:32.844Z,996.05
2018-02-01T17:01:25.621Z,996.07
2018-02-01T17:02:25.540Z,996.06
2018-02-01T17:04:18.326Z,996.03
2018-02-01T17:05:18.225Z,996.03
2018-02-01T17:07:10.992Z,996.05
2018-02-01T17:08:10.920Z,996.07
2018-02-01T17:10:03.722Z,996.07
2018-02-01T17:11:03.633Z,996.05
2018-02-01T17:12:56.463Z,996.04
2018-02-01T17:13:56.359Z,996.06
2018-02-01T17:15:49.151Z,996.05
2018-02-01T17:16:49.070Z,996.04
2018-02-01T17:18:41.867Z,996.06
2018-02-01T17:19:41.800Z,996.05
2018-02-01T17:21:35.710Z,996.10
2018-02-01T17:22:34.509Z,996.11
2018-02-01T17:24:27.261Z,996.10
2018-02-01T17:25:27.205Z,996.07
2018-02-01T17:27:19.980Z,996.07
2018-02-01T17:28:19.881Z,996.03
2018-02-01T17:30:12.694Z,996.06
2018-02-01T17:31:12.574Z,996.10
2018-02-01T17:33:05.383Z,996.09
2018-02-01T17:34:05.289Z,996.16
2018-02-01T17:35:58.118Z,996.18
2018-02-01T17:36:57.989Z,996.22
2018-02-01T17:38:50.750Z,996.23
2018-02-01T17:39:50.728Z,996.25
2018-02-01T17:41:43.454Z,996.16
2018-02-01T17:42:43.372Z,996.19
2018-02-01T17:44:36.152Z,996.22
2018-02-01T17:45:36.071Z,996.24
2018-02-01T17:47:28.828Z,996.21
2018-02-01T17:48:28.746Z,996.22
2018-02-01T17:50:21.498Z,996.21
2018-02-01T17:51:21.460Z,996.27
2018-02-01T17:53:14.222Z,996.22
2018-02-01T17:54:14.136Z,996.31
2018-02-01T17:56:06.909Z,996.29
2018-02-01T17:57:06.824Z,996.31